Apache, Nevada
Current Conditions -  °F | °C
As of 7:56 PM on Wednesday 22 Oct 2014 (Local Time) from KWMC Reporting Station
Clear Clear  
Wind Chill: 54°   Ceiling: Unl
Heat Index: 54°   Visibility: 10mi
Dew Point: 27°   Wind: 7mph
Humidity: 35%   Direction: 130°SE
Pressure: 30.03"   Gusts: NA
Location:  40.601°N, 117.984°W
Report Text: KWMC 230256Z AUTO 13006KT 10SM CLR 12/M03 A3003 RMK AO2 SLP167 T01221028 58007
Loading
Personal Weather Stations






























Interactive Weather Map
Tropical Storm Tracking
New forecast layout! Learn more

10-Day Weather Forecast

Advertisements
Track Severe Weather on mobile